createdAt,value
2023-04-13T00:00:16.813Z,61.1
2023-04-13T00:05:16.912Z,60.9
2023-04-13T00:10:16.992Z,60.6
2023-04-13T00:15:16.902Z,60.1
2023-04-13T00:20:16.852Z,59.9
2023-04-13T00:25:16.927Z,59.8
2023-04-13T00:30:17.071Z,59.2
2023-04-13T00:35:16.817Z,58.5
2023-04-13T00:40:17.006Z,58.3
2023-04-13T00:45:16.974Z,58.4
2023-04-13T00:50:16.789Z,58.2
2023-04-13T00:55:16.913Z,58.2
2023-04-13T01:00:16.883Z,58.1
2023-04-13T01:05:17.070Z,57.8
2023-04-13T01:10:17.088Z,57.3
2023-04-13T01:15:16.996Z,57.0
2023-04-13T01:20:16.925Z,56.8
2023-04-13T01:25:17.044Z,56.6
2023-04-13T01:30:17.099Z,56.0
2023-04-13T01:35:16.969Z,56.3
2023-04-13T01:40:17.277Z,57.1
2023-04-13T01:45:17.127Z,58.2
2023-04-13T01:50:16.957Z,58.8
2023-04-13T01:55:17.104Z,59.2
2023-04-13T02:00:17.052Z,59.4
2023-04-13T02:05:17.049Z,59.6
2023-04-13T02:10:17.184Z,59.8
2023-04-13T02:15:17.130Z,59.9
2023-04-13T02:20:17.153Z,60.0
2023-04-13T02:25:17.193Z,60.3
2023-04-13T02:30:17.263Z,60.5
2023-04-13T02:35:17.165Z,60.5
2023-04-13T02:40:17.311Z,60.5
2023-04-13T02:45:17.145Z,60.4
2023-04-13T02:50:17.140Z,60.2
2023-04-13T02:55:17.133Z,59.8
2023-04-13T03:00:17.163Z,59.3
2023-04-13T03:05:17.186Z,59.0
2023-04-13T03:10:17.140Z,58.0
2023-04-13T03:15:17.426Z,57.1
2023-04-13T03:20:17.228Z,56.5
2023-04-13T03:25:17.476Z,56.4
2023-04-13T03:30:17.156Z,56.3
2023-04-13T03:35:17.190Z,55.9
2023-04-13T03:40:17.407Z,55.0
2023-04-13T03:45:17.252Z,54.9
2023-04-13T03:50:17.385Z,54.9
2023-04-13T03:55:17.150Z,55.1
2023-04-13T04:00:16.337Z,55.6
2023-04-13T04:05:16.569Z,55.4
2023-04-13T04:10:16.829Z,55.1
2023-04-13T04:15:16.389Z,55.1
2023-04-13T04:20:16.312Z,54.4
2023-04-13T04:25:16.271Z,53.7
2023-04-13T04:30:16.435Z,53.0
2023-04-13T04:35:16.400Z,52.6
2023-04-13T04:40:16.349Z,52.2
2023-04-13T04:45:16.346Z,51.8
2023-04-13T04:50:16.758Z,51.6
2023-04-13T04:55:16.500Z,51.5
2023-04-13T05:00:16.374Z,51.8
2023-04-13T05:05:16.428Z,52.0
2023-04-13T05:10:16.483Z,52.2
2023-04-13T05:15:16.415Z,52.2
2023-04-13T05:20:16.494Z,52.2
2023-04-13T05:25:16.412Z,52.1
2023-04-13T05:30:16.630Z,52.2
2023-04-13T05:35:16.506Z,52.2
2023-04-13T05:40:16.460Z,52.2
2023-04-13T05:45:16.670Z,52.2
2023-04-13T05:50:16.762Z,52.2
2023-04-13T05:55:16.464Z,52.2
2023-04-13T06:00:16.428Z,52.1
2023-04-13T06:05:16.632Z,52.0
2023-04-13T06:10:16.695Z,51.9
2023-04-13T06:15:16.486Z,51.9
2023-04-13T06:20:16.555Z,51.9
2023-04-13T06:25:16.518Z,51.9
2023-04-13T06:30:16.530Z,51.8
2023-04-13T06:35:16.696Z,51.9
2023-04-13T06:40:16.607Z,51.9
2023-04-13T06:45:16.753Z,51.8
2023-04-13T06:50:16.656Z,51.7
2023-04-13T06:55:16.671Z,51.6
2023-04-13T07:00:29.068Z,51.5
2023-04-13T07:05:16.865Z,51.5
2023-04-13T07:10:16.716Z,51.4
2023-04-13T07:15:16.626Z,51.0
2023-04-13T07:20:16.928Z,50.9
2023-04-13T07:25:16.753Z,50.8
2023-04-13T07:30:16.728Z,50.6
2023-04-13T07:35:16.704Z,50.5
2023-04-13T07:40:16.723Z,50.4
2023-04-13T07:45:16.782Z,50.4
2023-04-13T07:50:16.738Z,50.4
2023-04-13T07:55:16.697Z,50.5
2023-04-13T08:00:17.066Z,50.5
2023-04-13T08:05:17.048Z,50.5
2023-04-13T08:10:17.015Z,50.4
2023-04-13T08:15:16.800Z,50.4
2023-04-13T08:20:16.798Z,50.4
2023-04-13T08:25:16.941Z,50.4
2023-04-13T08:30:16.895Z,50.3
2023-04-13T08:35:17.084Z,50.3
2023-04-13T08:40:16.773Z,50.2
2023-04-13T08:45:16.936Z,50.3
2023-04-13T08:50:16.884Z,50.3
2023-04-13T08:55:17.009Z,50.3
2023-04-13T09:00:16.867Z,50.3
2023-04-13T09:05:16.936Z,50.4
2023-04-13T09:10:16.907Z,50.4
2023-04-13T09:15:16.853Z,50.5
2023-04-13T09:20:16.956Z,50.5
2023-04-13T09:25:16.935Z,50.6
2023-04-13T09:30:16.879Z,50.7
2023-04-13T09:35:17.026Z,50.7
2023-04-13T09:40:16.925Z,50.7
2023-04-13T09:45:17.062Z,50.9
2023-04-13T09:50:17.124Z,51.0
2023-04-13T09:55:17.071Z,51.1
2023-04-13T10:00:19.356Z,51.2
2023-04-13T10:05:17.103Z,51.2
2023-04-13T10:10:17.017Z,51.3
2023-04-13T10:15:17.062Z,51.3
2023-04-13T10:20:17.066Z,51.5
2023-04-13T10:25:31.492Z,52.3
2023-04-13T10:30:17.073Z,52.6
2023-04-13T10:35:17.103Z,52.9
2023-04-13T10:40:17.416Z,53.3
2023-04-13T10:45:17.146Z,53.5
2023-04-13T10:50:17.058Z,53.6
2023-04-13T10:55:17.325Z,53.7
2023-04-13T11:00:17.136Z,53.9
2023-04-13T11:05:17.192Z,54.1
2023-04-13T11:10:17.230Z,54.3
2023-04-13T11:15:17.144Z,54.5
2023-04-13T11:20:17.136Z,54.6
2023-04-13T11:25:17.268Z,54.9
2023-04-13T11:30:17.183Z,55.3
2023-04-13T11:35:17.200Z,55.8
2023-04-13T11:40:17.189Z,56.2
2023-04-13T11:45:19.048Z,56.5
2023-04-13T11:50:17.368Z,56.7
2023-04-13T11:55:23.044Z,56.8
2023-04-13T12:00:17.340Z,56.9
2023-04-13T12:05:17.621Z,57.1
2023-04-13T12:10:23.342Z,57.1
2023-04-13T12:15:49.635Z,57.3
2023-04-13T12:20:17.606Z,57.5
2023-04-13T12:25:17.880Z,57.7
2023-04-13T12:30:17.238Z,58.0
2023-04-13T12:35:17.385Z,58.4
2023-04-13T12:40:17.336Z,58.8
2023-04-13T12:45:17.267Z,59.1
2023-04-13T12:50:17.398Z,59.4
2023-04-13T12:55:17.459Z,59.6
2023-04-13T13:00:17.379Z,59.6
2023-04-13T13:05:17.351Z,60.2
2023-04-13T13:10:29.905Z,60.7
2023-04-13T13:15:17.395Z,61.3
2023-04-13T13:20:15.468Z,61.6
2023-04-13T13:25:15.530Z,62.2
2023-04-13T13:30:15.480Z,62.8
2023-04-13T13:35:15.681Z,63.2
2023-04-13T13:40:15.593Z,63.6
2023-04-13T13:45:15.458Z,64.0
2023-04-13T13:50:15.454Z,64.4
2023-04-13T13:55:15.468Z,64.3
2023-04-13T14:00:15.528Z,64.1
2023-04-13T14:05:15.482Z,64.5
2023-04-13T14:10:15.704Z,64.8
2023-04-13T14:15:15.521Z,65.3
2023-04-13T14:20:15.632Z,65.8
2023-04-13T14:25:15.629Z,66.5
2023-04-13T14:30:15.570Z,67.1
2023-04-13T14:35:15.565Z,67.5
2023-04-13T14:40:15.528Z,67.9
2023-04-13T14:45:15.623Z,68.4
2023-04-13T14:50:15.632Z,68.4
2023-04-13T14:55:15.664Z,68.7
2023-04-13T15:00:15.608Z,69.2
2023-04-13T15:05:15.623Z,69.9
2023-04-13T15:10:15.667Z,71.0
2023-04-13T15:15:15.843Z,72.1
2023-04-13T15:20:15.609Z,72.8
2023-04-13T15:25:15.728Z,73.3
2023-04-13T15:30:15.958Z,73.8
2023-04-13T15:35:15.622Z,73.8
2023-04-13T15:40:15.800Z,73.5
2023-04-13T15:45:15.688Z,73.4
2023-04-13T15:50:15.773Z,73.6
2023-04-13T15:55:15.747Z,74.2
2023-04-13T16:00:15.857Z,73.8
2023-04-13T16:05:15.777Z,73.5
2023-04-13T16:10:15.736Z,74.2
2023-04-13T16:15:15.785Z,74.6
2023-04-13T16:20:15.731Z,74.3
2023-04-13T16:25:15.926Z,75.0
2023-04-13T16:30:15.776Z,75.9
2023-04-13T16:35:15.859Z,76.7
2023-04-13T16:40:16.183Z,77.2
2023-04-13T16:45:15.852Z,77.7
2023-04-13T16:50:15.856Z,78.1
2023-04-13T16:55:15.829Z,78.6
2023-04-13T17:00:15.853Z,79.1
2023-04-13T17:05:15.883Z,79.4
2023-04-13T17:10:15.882Z,79.5
2023-04-13T17:15:15.893Z,79.8
2023-04-13T17:20:16.992Z,80.4
2023-04-13T17:25:15.898Z,80.6
2023-04-13T17:30:15.964Z,80.1
2023-04-13T17:35:16.022Z,80.3
2023-04-13T17:40:15.971Z,80.6
2023-04-13T17:45:15.950Z,80.7
2023-04-13T17:50:16.045Z,80.5
2023-04-13T17:55:15.961Z,79.5
2023-04-13T18:00:16.016Z,79.6
2023-04-13T18:05:16.061Z,80.2
2023-04-13T18:10:15.985Z,80.9
2023-04-13T18:15:16.033Z,81.4
2023-04-13T18:20:16.005Z,81.0
2023-04-13T18:25:16.209Z,80.4
2023-04-13T18:30:16.167Z,79.8
2023-04-13T18:35:16.283Z,80.1
2023-04-13T18:40:16.288Z,80.7
2023-04-13T18:45:16.227Z,80.9
2023-04-13T18:50:16.107Z,80.9
2023-04-13T18:55:16.101Z,80.4
2023-04-13T19:00:16.131Z,79.8
2023-04-13T19:05:16.242Z,79.3
2023-04-13T19:10:16.241Z,79.3
2023-04-13T19:15:16.386Z,79.0
2023-04-13T19:20:16.350Z,78.1
2023-04-13T19:25:16.194Z,76.4
2023-04-13T19:30:16.141Z,74.8
2023-04-13T19:35:16.191Z,74.7
2023-04-13T19:40:16.176Z,74.9
2023-04-13T19:45:16.191Z,74.9
2023-04-13T19:50:16.224Z,74.8
2023-04-13T19:55:16.139Z,75.0
2023-04-13T20:00:16.145Z,74.9
2023-04-13T20:05:16.295Z,75.2
2023-04-13T20:10:16.291Z,75.5
2023-04-13T20:15:16.205Z,75.7
2023-04-13T20:20:16.412Z,75.9
2023-04-13T20:25:16.330Z,75.6
2023-04-13T20:30:16.432Z,75.5
2023-04-13T20:35:16.332Z,75.4
2023-04-13T20:40:16.319Z,75.4
2023-04-13T20:45:16.411Z,75.4
2023-04-13T20:50:16.332Z,75.5
2023-04-13T20:55:16.278Z,75.3
2023-04-13T21:00:16.450Z,74.6
2023-04-13T21:05:16.334Z,74.6
2023-04-13T21:10:16.366Z,74.4
2023-04-13T21:15:16.377Z,74.0
2023-04-13T21:20:16.374Z,73.4
2023-04-13T21:25:16.413Z,72.8
2023-04-13T21:30:16.407Z,72.6
2023-04-13T21:35:16.747Z,72.4
2023-04-13T21:40:16.465Z,72.2
2023-04-13T21:45:16.350Z,72.4
2023-04-13T21:50:16.479Z,72.5
2023-04-13T21:55:16.664Z,72.6
2023-04-13T22:00:16.584Z,72.1
2023-04-13T22:05:16.486Z,71.2
2023-04-13T22:10:16.505Z,70.6
2023-04-13T22:15:16.454Z,70.8
2023-04-13T22:20:16.967Z,71.2
2023-04-13T22:25:16.635Z,71.7
2023-04-13T22:30:16.553Z,71.4
2023-04-13T22:35:16.466Z,71.1
2023-04-13T22:40:16.719Z,71.0
2023-04-13T22:45:16.545Z,71.0
2023-04-13T22:50:16.592Z,71.0
2023-04-13T22:55:16.561Z,70.9
2023-04-13T23:00:16.539Z,70.9
2023-04-13T23:05:16.600Z,70.9
2023-04-13T23:10:17.155Z,70.6
2023-04-13T23:15:16.606Z,70.4
2023-04-13T23:20:16.860Z,70.1
2023-04-13T23:25:16.844Z,69.8
2023-04-13T23:30:16.678Z,69.7
2023-04-13T23:35:16.789Z,69.5
2023-04-13T23:40:16.941Z,69.5
2023-04-13T23:45:16.654Z,69.3
2023-04-13T23:50:16.732Z,68.9
2023-04-13T23:55:16.610Z,68.6
